<?xml version="1.0" encoding="UTF-8" standalone="no" ?>
<gpx xmlns="http://www.topografix.com/GPX/1/1" xmlns:xsi="http://www.w3.org/2001/XMLSchema-instance" xsi:schemaLocation="http://www.topografix.com/GPX/1/1 http://www.topografix.com/GPX/1/1/gpx.xsd" version="1.1" creator="VisuGPX - https://www.visugpx.com">
  <metadata>
    <name>Banban</name>
    <desc><![CDATA[Une course à travers les Monts]]></desc>
  </metadata>
  <trk>
    <name><![CDATA[Banban]]></name>
    <trkseg>
      <trkpt lat="45.77735" lon="4.66692">
        <ele>437.54</ele>
        <time>2013-01-13T14:13:02Z</time>
      </trkpt>
      <trkpt lat="45.77735" lon="4.66692">
        <ele>438.02</ele>
        <time>2013-01-13T14:13:15Z</time>
      </trkpt>
      <trkpt lat="45.77735" lon="4.66692">
        <ele>438.02</ele>
        <time>2013-01-13T14:13:25Z</time>
      </trkpt>
      <trkpt lat="45.77735" lon="4.66693">
        <ele>437.54</ele>
        <time>2013-01-13T14:13:38Z</time>
      </trkpt>
      <trkpt lat="45.77735" lon="4.66693">
        <ele>437.54</ele>
        <time>2013-01-13T14:13:48Z</time>
      </trkpt>
      <trkpt lat="45.77735" lon="4.66693">
        <ele>438.02</ele>
        <time>2013-01-13T14:13:55Z</time>
      </trkpt>
      <trkpt lat="45.77737" lon="4.66692">
        <ele>438.98</ele>
        <time>2013-01-13T14:14:05Z</time>
      </trkpt>
      <trkpt lat="45.77742" lon="4.66696">
        <ele>439.46</ele>
        <time>2013-01-13T14:14:13Z</time>
      </trkpt>
      <trkpt lat="45.77744" lon="4.66699">
        <ele>438.98</ele>
        <time>2013-01-13T14:14:18Z</time>
      </trkpt>
      <trkpt lat="45.77752" lon="4.66701">
        <ele>438.02</ele>
        <time>2013-01-13T14:14:27Z</time>
      </trkpt>
      <trkpt lat="45.7776" lon="4.66696">
        <ele>438.98</ele>
        <time>2013-01-13T14:14:35Z</time>
      </trkpt>
      <trkpt lat="45.77766" lon="4.6669">
        <ele>439.46</ele>
        <time>2013-01-13T14:14:44Z</time>
      </trkpt>
      <trkpt lat="45.7777" lon="4.66687">
        <ele>440.42</ele>
        <time>2013-01-13T14:14:48Z</time>
      </trkpt>
      <trkpt lat="45.77777" lon="4.66683">
        <ele>440.42</ele>
        <time>2013-01-13T14:14:57Z</time>
      </trkpt>
      <trkpt lat="45.77782" lon="4.66682">
        <ele>438.5</ele>
        <time>2013-01-13T14:15:04Z</time>
      </trkpt>
      <trkpt lat="45.77783" lon="4.66676">
        <ele>438.5</ele>
        <time>2013-01-13T14:15:09Z</time>
      </trkpt>
      <trkpt lat="45.77783" lon="4.66661">
        <ele>439.46</ele>
        <time>2013-01-13T14:15:17Z</time>
      </trkpt>
      <trkpt lat="45.77782" lon="4.66659">
        <ele>439.94</ele>
        <time>2013-01-13T14:15:18Z</time>
      </trkpt>
      <trkpt lat="45.7778" lon="4.66636">
        <ele>441.86</ele>
        <time>2013-01-13T14:15:30Z</time>
      </trkpt>
      <trkpt lat="45.77776" lon="4.66619">
        <ele>443.31</ele>
        <time>2013-01-13T14:15:39Z</time>
      </trkpt>
      <trkpt lat="45.77774" lon="4.66604">
        <ele>441.86</ele>
        <time>2013-01-13T14:15:48Z</time>
      </trkpt>
      <trkpt lat="45.77776" lon="4.66602">
        <ele>441.38</ele>
        <time>2013-01-13T14:15:50Z</time>
      </trkpt>
      <trkpt lat="45.77779" lon="4.66598">
        <ele>441.38</ele>
        <time>2013-01-13T14:15:53Z</time>
      </trkpt>
      <trkpt lat="45.77785" lon="4.66596">
        <ele>445.23</ele>
        <time>2013-01-13T14:15:59Z</time>
      </trkpt>
      <trkpt lat="45.77795" lon="4.66607">
        <ele>450.03</ele>
        <time>2013-01-13T14:16:09Z</time>
      </trkpt>
      <trkpt lat="45.77808" lon="4.66611">
        <ele>450.52</ele>
        <time>2013-01-13T14:16:19Z</time>
      </trkpt>
      <trkpt lat="45.77815" lon="4.6661">
        <ele>451</ele>
        <time>2013-01-13T14:16:24Z</time>
      </trkpt>
      <trkpt lat="45.77825" lon="4.66607">
        <ele>451.48</ele>
        <time>2013-01-13T14:16:33Z</time>
      </trkpt>
      <trkpt lat="45.77839" lon="4.66608">
        <ele>454.84</ele>
        <time>2013-01-13T14:16:43Z</time>
      </trkpt>
      <trkpt lat="45.7785" lon="4.66612">
        <ele>455.8</ele>
        <time>2013-01-13T14:16:51Z</time>
      </trkpt>
      <trkpt lat="45.77865" lon="4.66613">
        <ele>457.24</ele>
        <time>2013-01-13T14:17:01Z</time>
      </trkpt>
      <trkpt lat="45.7788" lon="4.66614">
        <ele>460.61</ele>
        <time>2013-01-13T14:17:11Z</time>
      </trkpt>
      <trkpt lat="45.77895" lon="4.66614">
        <ele>466.38</ele>
        <time>2013-01-13T14:17:21Z</time>
      </trkpt>
      <trkpt lat="45.77902" lon="4.66604">
        <ele>467.82</ele>
        <time>2013-01-13T14:17:29Z</time>
      </trkpt>
      <trkpt lat="45.77896" lon="4.66592">
        <ele>467.82</ele>
        <time>2013-01-13T14:17:37Z</time>
      </trkpt>
      <trkpt lat="45.7789" lon="4.66584">
        <ele>466.38</ele>
        <time>2013-01-13T14:17:42Z</time>
      </trkpt>
      <trkpt lat="45.77884" lon="4.66569">
        <ele>465.9</ele>
        <time>2013-01-13T14:17:50Z</time>
      </trkpt>
      <trkpt lat="45.77878" lon="4.66549">
        <ele>465.42</ele>
        <time>2013-01-13T14:18:00Z</time>
      </trkpt>
      <trkpt lat="45.77878" lon="4.66537">
        <ele>467.34</ele>
        <time>2013-01-13T14:18:06Z</time>
      </trkpt>
      <trkpt lat="45.77876" lon="4.66533">
        <ele>467.34</ele>
        <time>2013-01-13T14:18:08Z</time>
      </trkpt>
      <trkpt lat="45.77869" lon="4.66519">
        <ele>470.22</ele>
        <time>2013-01-13T14:18:17Z</time>
      </trkpt>
      <trkpt lat="45.77863" lon="4.66506">
        <ele>470.22</ele>
        <time>2013-01-13T14:18:26Z</time>
      </trkpt>
      <trkpt lat="45.77857" lon="4.66487">
        <ele>472.63</ele>
        <time>2013-01-13T14:18:36Z</time>
      </trkpt>
      <trkpt lat="45.77852" lon="4.6647">
        <ele>475.03</ele>
        <time>2013-01-13T14:18:44Z</time>
      </trkpt>
      <trkpt lat="45.77851" lon="4.66453">
        <ele>476.47</ele>
        <time>2013-01-13T14:18:53Z</time>
      </trkpt>
      <trkpt lat="45.77845" lon="4.66434">
        <ele>477.91</ele>
        <time>2013-01-13T14:19:02Z</time>
      </trkpt>
      <trkpt lat="45.77843" lon="4.66425">
        <ele>478.87</ele>
        <time>2013-01-13T14:19:06Z</time>
      </trkpt>
      <trkpt lat="45.7784" lon="4.66412">
        <ele>479.84</ele>
        <time>2013-01-13T14:19:13Z</time>
      </trkpt>
      <trkpt lat="45.77836" lon="4.66397">
        <ele>481.28</ele>
        <time>2013-01-13T14:19:20Z</time>
      </trkpt>
      <trkpt lat="45.77831" lon="4.66379">
        <ele>481.76</ele>
        <time>2013-01-13T14:19:29Z</time>
      </trkpt>
      <trkpt lat="45.7783" lon="4.66361">
        <ele>483.2</ele>
        <time>2013-01-13T14:19:38Z</time>
      </trkpt>
      <trkpt lat="45.77831" lon="4.66344">
        <ele>484.16</ele>
        <time>2013-01-13T14:19:48Z</time>
      </trkpt>
      <trkpt lat="45.77831" lon="4.66327">
        <ele>485.6</ele>
        <time>2013-01-13T14:19:57Z</time>
      </trkpt>
      <trkpt lat="45.77832" lon="4.66306">
        <ele>486.08</ele>
        <time>2013-01-13T14:20:07Z</time>
      </trkpt>
      <trkpt lat="45.77833" lon="4.66286">
        <ele>486.56</ele>
        <time>2013-01-13T14:20:17Z</time>
      </trkpt>
      <trkpt lat="45.77836" lon="4.66273">
        <ele>485.6</ele>
        <time>2013-01-13T14:20:24Z</time>
      </trkpt>
      <trkpt lat="45.77838" lon="4.66253">
        <ele>484.64</ele>
        <time>2013-01-13T14:20:34Z</time>
      </trkpt>
      <trkpt lat="45.77841" lon="4.66236">
        <ele>485.12</ele>
        <time>2013-01-13T14:20:43Z</time>
      </trkpt>
      <trkpt lat="45.77841" lon="4.66226">
        <ele>485.6</ele>
        <time>2013-01-13T14:20:47Z</time>
      </trkpt>
      <trkpt lat="45.77841" lon="4.66207">
        <ele>487.53</ele>
        <time>2013-01-13T14:20:57Z</time>
      </trkpt>
      <trkpt lat="45.77845" lon="4.66188">
        <ele>488.97</ele>
        <time>2013-01-13T14:21:07Z</time>
      </trkpt>
      <trkpt lat="45.77849" lon="4.66173">
        <ele>490.41</ele>
        <time>2013-01-13T14:21:15Z</time>
      </trkpt>
      <trkpt lat="45.7785" lon="4.66169">
        <ele>492.33</ele>
        <time>2013-01-13T14:21:18Z</time>
      </trkpt>
      <trkpt lat="45.77854" lon="4.66158">
        <ele>493.77</ele>
        <time>2013-01-13T14:21:25Z</time>
      </trkpt>
      <trkpt lat="45.77856" lon="4.66153">
        <ele>493.77</ele>
        <time>2013-01-13T14:21:29Z</time>
      </trkpt>
      <trkpt lat="45.77857" lon="4.66137">
        <ele>496.18</ele>
        <time>2013-01-13T14:21:38Z</time>
      </trkpt>
      <trkpt lat="45.77857" lon="4.6612">
        <ele>498.58</ele>
        <time>2013-01-13T14:21:47Z</time>
      </trkpt>
      <trkpt lat="45.77857" lon="4.66115">
        <ele>499.54</ele>
        <time>2013-01-13T14:21:50Z</time>
      </trkpt>
      <trkpt lat="45.77862" lon="4.66098">
        <ele>500.02</ele>
        <time>2013-01-13T14:22:00Z</time>
      </trkpt>
      <trkpt lat="45.77864" lon="4.66086">
        <ele>499.54</ele>
        <time>2013-01-13T14:22:07Z</time>
      </trkpt>
      <trkpt lat="45.77862" lon="4.66071">
        <ele>500.98</ele>
        <time>2013-01-13T14:22:16Z</time>
      </trkpt>
      <trkpt lat="45.77859" lon="4.66053">
        <ele>502.91</ele>
        <time>2013-01-13T14:22:26Z</time>
      </trkpt>
      <trkpt lat="45.77857" lon="4.66038">
        <ele>505.31</ele>
        <time>2013-01-13T14:22:35Z</time>
      </trkpt>
      <trkpt lat="45.77857" lon="4.66029">
        <ele>506.75</ele>
        <time>2013-01-13T14:22:40Z</time>
      </trkpt>
      <trkpt lat="45.77857" lon="4.66012">
        <ele>508.67</ele>
        <time>2013-01-13T14:22:49Z</time>
      </trkpt>
      <trkpt lat="45.77857" lon="4.65994">
        <ele>509.64</ele>
        <time>2013-01-13T14:22:59Z</time>
      </trkpt>
      <trkpt lat="45.77858" lon="4.65978">
        <ele>509.64</ele>
        <time>2013-01-13T14:23:08Z</time>
      </trkpt>
      <trkpt lat="45.77858" lon="4.65962">
        <ele>509.16</ele>
        <time>2013-01-13T14:23:17Z</time>
      </trkpt>
      <trkpt lat="45.77857" lon="4.6595">
        <ele>509.64</ele>
        <time>2013-01-13T14:23:25Z</time>
      </trkpt>
      <trkpt lat="45.77856" lon="4.65935">
        <ele>510.6</ele>
        <time>2013-01-13T14:23:35Z</time>
      </trkpt>
      <trkpt lat="45.77855" lon="4.65921">
        <ele>509.64</ele>
        <time>2013-01-13T14:23:43Z</time>
      </trkpt>
      <trkpt lat="45.77854" lon="4.65904">
        <ele>510.12</ele>
        <time>2013-01-13T14:23:52Z</time>
      </trkpt>
      <trkpt lat="45.77853" lon="4.65894">
        <ele>511.56</ele>
        <time>2013-01-13T14:23:59Z</time>
      </trkpt>
      <trkpt lat="45.77849" lon="4.65881">
        <ele>513.96</ele>
        <time>2013-01-13T14:24:08Z</time>
      </trkpt>
      <trkpt lat="45.77845" lon="4.65871">
        <ele>516.37</ele>
        <time>2013-01-13T14:24:15Z</time>
      </trkpt>
      <trkpt lat="45.77843" lon="4.65859">
        <ele>518.77</ele>
        <time>2013-01-13T14:24:22Z</time>
      </trkpt>
      <trkpt lat="45.77842" lon="4.65846">
        <ele>519.73</ele>
        <time>2013-01-13T14:24:29Z</time>
      </trkpt>
      <trkpt lat="45.77841" lon="4.65843">
        <ele>519.73</ele>
        <time>2013-01-13T14:24:31Z</time>
      </trkpt>
      <trkpt lat="45.77838" lon="4.65831">
        <ele>520.69</ele>
        <time>2013-01-13T14:24:39Z</time>
      </trkpt>
      <trkpt lat="45.77834" lon="4.65823">
        <ele>523.09</ele>
        <time>2013-01-13T14:24:45Z</time>
      </trkpt>
      <trkpt lat="45.77832" lon="4.65811">
        <ele>526.46</ele>
        <time>2013-01-13T14:24:53Z</time>
      </trkpt>
      <trkpt lat="45.7783" lon="4.65802">
        <ele>527.42</ele>
        <time>2013-01-13T14:25:00Z</time>
      </trkpt>
      <trkpt lat="45.77831" lon="4.65799">
        <ele>527.42</ele>
        <time>2013-01-13T14:25:09Z</time>
      </trkpt>
      <trkpt lat="45.77831" lon="4.65799">
        <ele>527.42</ele>
        <time>2013-01-13T14:25:25Z</time>
      </trkpt>
      <trkpt lat="45.77831" lon="4.65799">
        <ele>527.42</ele>
        <time>2013-01-13T14:25:38Z</time>
      </trkpt>
      <trkpt lat="45.77831" lon="4.65799">
        <ele>527.42</ele>
        <time>2013-01-13T14:25:55Z</time>
      </trkpt>
      <trkpt lat="45.7783" lon="4.65798">
        <ele>527.42</ele>
        <time>2013-01-13T14:26:05Z</time>
      </trkpt>
      <trkpt lat="45.77829" lon="4.65795">
        <ele>527.42</ele>
        <time>2013-01-13T14:26:18Z</time>
      </trkpt>
      <trkpt lat="45.77828" lon="4.65788">
        <ele>528.38</ele>
        <time>2013-01-13T14:26:23Z</time>
      </trkpt>
      <trkpt lat="45.77821" lon="4.6579">
        <ele>529.34</ele>
        <time>2013-01-13T14:26:32Z</time>
      </trkpt>
      <trkpt lat="45.7781" lon="4.65788">
        <ele>528.86</ele>
        <time>2013-01-13T14:26:42Z</time>
      </trkpt>
      <trkpt lat="45.77805" lon="4.6578">
        <ele>530.79</ele>
        <time>2013-01-13T14:26:50Z</time>
      </trkpt>
      <trkpt lat="45.77801" lon="4.6577">
        <ele>533.19</ele>
        <time>2013-01-13T14:26:57Z</time>
      </trkpt>
      <trkpt lat="45.77796" lon="4.6576">
        <ele>535.59</ele>
        <time>2013-01-13T14:27:05Z</time>
      </trkpt>
      <trkpt lat="45.77795" lon="4.65749">
        <ele>537.03</ele>
        <time>2013-01-13T14:27:12Z</time>
      </trkpt>
      <trkpt lat="45.77792" lon="4.65738">
        <ele>539.44</ele>
        <time>2013-01-13T14:27:19Z</time>
      </trkpt>
      <trkpt lat="45.77787" lon="4.65729">
        <ele>541.84</ele>
        <time>2013-01-13T14:27:27Z</time>
      </trkpt>
      <trkpt lat="45.77782" lon="4.6572">
        <ele>543.28</ele>
        <time>2013-01-13T14:27:33Z</time>
      </trkpt>
      <trkpt lat="45.77775" lon="4.65706">
        <ele>545.2</ele>
        <time>2013-01-13T14:27:42Z</time>
      </trkpt>
      <trkpt lat="45.77771" lon="4.65697">
        <ele>546.65</ele>
        <time>2013-01-13T14:27:49Z</time>
      </trkpt>
      <trkpt lat="45.77767" lon="4.65684">
        <ele>548.57</ele>
        <time>2013-01-13T14:27:58Z</time>
      </trkpt>
      <trkpt lat="45.77766" lon="4.65677">
        <ele>549.05</ele>
        <time>2013-01-13T14:28:02Z</time>
      </trkpt>
      <trkpt lat="45.77763" lon="4.65666">
        <ele>550.97</ele>
        <time>2013-01-13T14:28:08Z</time>
      </trkpt>
      <trkpt lat="45.77757" lon="4.65657">
        <ele>552.41</ele>
        <time>2013-01-13T14:28:16Z</time>
      </trkpt>
      <trkpt lat="45.77756" lon="4.65656">
        <ele>552.41</ele>
        <time>2013-01-13T14:28:17Z</time>
      </trkpt>
      <trkpt lat="45.77755" lon="4.65639">
        <ele>554.82</ele>
        <time>2013-01-13T14:28:25Z</time>
      </trkpt>
      <trkpt lat="45.77751" lon="4.6563">
        <ele>555.3</ele>
        <time>2013-01-13T14:28:31Z</time>
      </trkpt>
      <trkpt lat="45.77752" lon="4.6562">
        <ele>556.26</ele>
        <time>2013-01-13T14:28:36Z</time>
      </trkpt>
      <trkpt lat="45.7775" lon="4.65609">
        <ele>556.26</ele>
        <time>2013-01-13T14:28:41Z</time>
      </trkpt>
      <trkpt lat="45.7775" lon="4.65588">
        <ele>560.11</ele>
        <time>2013-01-13T14:28:50Z</time>
      </trkpt>
      <trkpt lat="45.77748" lon="4.65571">
        <ele>560.59</ele>
        <time>2013-01-13T14:28:58Z</time>
      </trkpt>
      <trkpt lat="45.77745" lon="4.65554">
        <ele>561.07</ele>
        <time>2013-01-13T14:29:07Z</time>
      </trkpt>
      <trkpt lat="45.77742" lon="4.65536">
        <ele>563.47</ele>
        <time>2013-01-13T14:29:16Z</time>
      </trkpt>
      <trkpt lat="45.77742" lon="4.65521">
        <ele>564.43</ele>
        <time>2013-01-13T14:29:24Z</time>
      </trkpt>
      <trkpt lat="45.77742" lon="4.65519">
        <ele>564.43</ele>
        <time>2013-01-13T14:29:25Z</time>
      </trkpt>
      <trkpt lat="45.77745" lon="4.65512">
        <ele>564.43</ele>
        <time>2013-01-13T14:29:29Z</time>
      </trkpt>
      <trkpt lat="45.77753" lon="4.65498">
        <ele>562.51</ele>
        <time>2013-01-13T14:29:38Z</time>
      </trkpt>
      <trkpt lat="45.77761" lon="4.65492">
        <ele>562.99</ele>
        <time>2013-01-13T14:29:44Z</time>
      </trkpt>
      <trkpt lat="45.77773" lon="4.6548">
        <ele>564.43</ele>
        <time>2013-01-13T14:29:54Z</time>
      </trkpt>
      <trkpt lat="45.77779" lon="4.65466">
        <ele>564.91</ele>
        <time>2013-01-13T14:30:02Z</time>
      </trkpt>
      <trkpt lat="45.77779" lon="4.65464">
        <ele>564.91</ele>
        <time>2013-01-13T14:30:03Z</time>
      </trkpt>
      <trkpt lat="45.77783" lon="4.65456">
        <ele>563.95</ele>
        <time>2013-01-13T14:30:07Z</time>
      </trkpt>
      <trkpt lat="45.77789" lon="4.65441">
        <ele>562.03</ele>
        <time>2013-01-13T14:30:16Z</time>
      </trkpt>
      <trkpt lat="45.77794" lon="4.65427">
        <ele>561.55</ele>
        <time>2013-01-13T14:30:25Z</time>
      </trkpt>
      <trkpt lat="45.778" lon="4.65411">
        <ele>561.07</ele>
        <time>2013-01-13T14:30:34Z</time>
      </trkpt>
      <trkpt lat="45.77805" lon="4.65394">
        <ele>563.95</ele>
        <time>2013-01-13T14:30:43Z</time>
      </trkpt>
      <trkpt lat="45.77808" lon="4.65385">
        <ele>565.87</ele>
        <time>2013-01-13T14:30:49Z</time>
      </trkpt>
      <trkpt lat="45.77815" lon="4.6537">
        <ele>565.39</ele>
        <time>2013-01-13T14:30:58Z</time>
      </trkpt>
      <trkpt lat="45.77818" lon="4.65356">
        <ele>565.87</ele>
        <time>2013-01-13T14:31:06Z</time>
      </trkpt>
      <trkpt lat="45.77827" lon="4.65342">
        <ele>566.35</ele>
        <time>2013-01-13T14:31:15Z</time>
      </trkpt>
      <trkpt lat="45.77829" lon="4.65321">
        <ele>569.24</ele>
        <time>2013-01-13T14:31:24Z</time>
      </trkpt>
      <trkpt lat="45.7783" lon="4.65307">
        <ele>572.12</ele>
        <time>2013-01-13T14:31:32Z</time>
      </trkpt>
      <trkpt lat="45.77831" lon="4.65296">
        <ele>574.04</ele>
        <time>2013-01-13T14:31:38Z</time>
      </trkpt>
      <trkpt lat="45.77831" lon="4.65286">
        <ele>577.89</ele>
        <time>2013-01-13T14:31:44Z</time>
      </trkpt>
      <trkpt lat="45.77831" lon="4.6528">
        <ele>578.85</ele>
        <time>2013-01-13T14:31:47Z</time>
      </trkpt>
      <trkpt lat="45.77828" lon="4.65272">
        <ele>579.81</ele>
        <time>2013-01-13T14:31:54Z</time>
      </trkpt>
      <trkpt lat="45.77824" lon="4.65266">
        <ele>579.81</ele>
        <time>2013-01-13T14:32:01Z</time>
      </trkpt>
      <trkpt lat="45.7782" lon="4.65258">
        <ele>578.37</ele>
        <time>2013-01-13T14:32:07Z</time>
      </trkpt>
      <trkpt lat="45.77815" lon="4.65246">
        <ele>580.29</ele>
        <time>2013-01-13T14:32:15Z</time>
      </trkpt>
      <trkpt lat="45.7781" lon="4.65231">
        <ele>581.73</ele>
        <time>2013-01-13T14:32:24Z</time>
      </trkpt>
      <trkpt lat="45.77811" lon="4.65221">
        <ele>582.22</ele>
        <time>2013-01-13T14:32:30Z</time>
      </trkpt>
      <trkpt lat="45.77812" lon="4.65212">
        <ele>580.77</ele>
        <time>2013-01-13T14:32:35Z</time>
      </trkpt>
      <trkpt lat="45.77811" lon="4.65206">
        <ele>580.77</ele>
        <time>2013-01-13T14:32:38Z</time>
      </trkpt>
      <trkpt lat="45.77811" lon="4.6519">
        <ele>583.66</ele>
        <time>2013-01-13T14:32:46Z</time>
      </trkpt>
      <trkpt lat="45.77814" lon="4.65177">
        <ele>583.66</ele>
        <time>2013-01-13T14:32:54Z</time>
      </trkpt>
      <trkpt lat="45.77816" lon="4.65169">
        <ele>583.18</ele>
        <time>2013-01-13T14:33:00Z</time>
      </trkpt>
      <trkpt lat="45.77822" lon="4.65153">
        <ele>584.62</ele>
        <time>2013-01-13T14:33:10Z</time>
      </trkpt>
      <trkpt lat="45.77824" lon="4.6515">
        <ele>585.1</ele>
        <time>2013-01-13T14:33:15Z</time>
      </trkpt>
      <trkpt lat="45.77834" lon="4.65143">
        <ele>585.1</ele>
        <time>2013-01-13T14:33:23Z</time>
      </trkpt>
      <trkpt lat="45.77844" lon="4.6514">
        <ele>587.02</ele>
        <time>2013-01-13T14:33:30Z</time>
      </trkpt>
      <trkpt lat="45.77855" lon="4.65136">
        <ele>591.35</ele>
        <time>2013-01-13T14:33:38Z</time>
      </trkpt>
      <trkpt lat="45.77862" lon="4.6513">
        <ele>594.23</ele>
        <time>2013-01-13T14:33:46Z</time>
      </trkpt>
      <trkpt lat="45.77871" lon="4.65122">
        <ele>599.52</ele>
        <time>2013-01-13T14:33:54Z</time>
      </trkpt>
      <trkpt lat="45.7788" lon="4.65116">
        <ele>605.29</ele>
        <time>2013-01-13T14:34:02Z</time>
      </trkpt>
      <trkpt lat="45.77882" lon="4.65114">
        <ele>606.25</ele>
        <time>2013-01-13T14:34:04Z</time>
      </trkpt>
      <trkpt lat="45.77888" lon="4.65107">
        <ele>607.69</ele>
        <time>2013-01-13T14:34:12Z</time>
      </trkpt>
      <trkpt lat="45.77894" lon="4.65097">
        <ele>608.65</ele>
        <time>2013-01-13T14:34:18Z</time>
      </trkpt>
      <trkpt lat="45.77896" lon="4.65084">
        <ele>610.57</ele>
        <time>2013-01-13T14:34:28Z</time>
      </trkpt>
      <trkpt lat="45.77896" lon="4.65076">
        <ele>611.06</ele>
        <time>2013-01-13T14:34:32Z</time>
      </trkpt>
      <trkpt lat="45.77894" lon="4.65067">
        <ele>611.06</ele>
        <time>2013-01-13T14:34:36Z</time>
      </trkpt>
      <trkpt lat="45.77893" lon="4.65049">
        <ele>612.02</ele>
        <time>2013-01-13T14:34:43Z</time>
      </trkpt>
      <trkpt lat="45.779" lon="4.65038">
        <ele>612.02</ele>
        <time>2013-01-13T14:34:49Z</time>
      </trkpt>
      <trkpt lat="45.7791" lon="4.65026">
        <ele>615.38</ele>
        <time>2013-01-13T14:34:57Z</time>
      </trkpt>
      <trkpt lat="45.77913" lon="4.65023">
        <ele>616.82</ele>
        <time>2013-01-13T14:35:00Z</time>
      </trkpt>
      <trkpt lat="45.77912" lon="4.65005">
        <ele>618.75</ele>
        <time>2013-01-13T14:35:09Z</time>
      </trkpt>
      <trkpt lat="45.77911" lon="4.64991">
        <ele>618.75</ele>
        <time>2013-01-13T14:35:17Z</time>
      </trkpt>
      <trkpt lat="45.77909" lon="4.64979">
        <ele>618.26</ele>
        <time>2013-01-13T14:35:24Z</time>
      </trkpt>
      <trkpt lat="45.77911" lon="4.64967">
        <ele>619.71</ele>
        <time>2013-01-13T14:35:31Z</time>
      </trkpt>
      <trkpt lat="45.77911" lon="4.64963">
        <ele>619.71</ele>
        <time>2013-01-13T14:35:33Z</time>
      </trkpt>
      <trkpt lat="45.77911" lon="4.64949">
        <ele>619.71</ele>
        <time>2013-01-13T14:35:38Z</time>
      </trkpt>
      <trkpt lat="45.77912" lon="4.6493">
        <ele>618.75</ele>
        <time>2013-01-13T14:35:46Z</time>
      </trkpt>
      <trkpt lat="45.77915" lon="4.64913">
        <ele>619.71</ele>
        <time>2013-01-13T14:35:53Z</time>
      </trkpt>
      <trkpt lat="45.77916" lon="4.64891">
        <ele>622.11</ele>
        <time>2013-01-13T14:36:01Z</time>
      </trkpt>
      <trkpt lat="45.7792" lon="4.64871">
        <ele>626.44</ele>
        <time>2013-01-13T14:36:08Z</time>
      </trkpt>
      <trkpt lat="45.77924" lon="4.64856">
        <ele>631.24</ele>
        <time>2013-01-13T14:36:13Z</time>
      </trkpt>
      <trkpt lat="45.77926" lon="4.64841">
        <ele>635.09</ele>
        <time>2013-01-13T14:36:19Z</time>
      </trkpt>
      <trkpt lat="45.77929" lon="4.64823">
        <ele>637.49</ele>
        <time>2013-01-13T14:36:26Z</time>
      </trkpt>
      <trkpt lat="45.77936" lon="4.64806">
        <ele>639.41</ele>
        <time>2013-01-13T14:36:33Z</time>
      </trkpt>
      <trkpt lat="45.77938" lon="4.64796">
        <ele>639.41</ele>
        <time>2013-01-13T14:36:37Z</time>
      </trkpt>
      <trkpt lat="45.77943" lon="4.64781">
        <ele>638.93</ele>
        <time>2013-01-13T14:36:43Z</time>
      </trkpt>
      <trkpt lat="45.77946" lon="4.64765">
        <ele>638.93</ele>
        <time>2013-01-13T14:36:49Z</time>
      </trkpt>
      <trkpt lat="45.77947" lon="4.64748">
        <ele>639.41</ele>
        <time>2013-01-13T14:36:55Z</time>
      </trkpt>
      <trkpt lat="45.77948" lon="4.64743">
        <ele>639.41</ele>
        <time>2013-01-13T14:36:57Z</time>
      </trkpt>
      <trkpt lat="45.77952" lon="4.64727">
        <ele>637.97</ele>
        <time>2013-01-13T14:37:03Z</time>
      </trkpt>
      <trkpt lat="45.77956" lon="4.64709">
        <ele>635.57</ele>
        <time>2013-01-13T14:37:09Z</time>
      </trkpt>
      <trkpt lat="45.77965" lon="4.64687">
        <ele>629.8</ele>
        <time>2013-01-13T14:37:17Z</time>
      </trkpt>
      <trkpt lat="45.77975" lon="4.64662">
        <ele>626.44</ele>
        <time>2013-01-13T14:37:24Z</time>
      </trkpt>
      <trkpt lat="45.77983" lon="4.64643">
        <ele>625.96</ele>
        <time>2013-01-13T14:37:30Z</time>
      </trkpt>
      <trkpt lat="45.77984" lon="4.64641">
        <ele>625.47</ele>
        <time>2013-01-13T14:37:31Z</time>
      </trkpt>
      <trkpt lat="45.77993" lon="4.64621">
        <ele>625.96</ele>
        <time>2013-01-13T14:37:37Z</time>
      </trkpt>
      <trkpt lat="45.78006" lon="4.64607">
        <ele>625.96</ele>
        <time>2013-01-13T14:37:44Z</time>
      </trkpt>
      <trkpt lat="45.78011" lon="4.64601">
        <ele>625.47</ele>
        <time>2013-01-13T14:37:47Z</time>
      </trkpt>
      <trkpt lat="45.78015" lon="4.64583">
        <ele>624.51</ele>
        <time>2013-01-13T14:37:54Z</time>
      </trkpt>
      <trkpt lat="45.78021" lon="4.64559">
        <ele>624.99</ele>
        <time>2013-01-13T14:38:01Z</time>
      </trkpt>
      <trkpt lat="45.78024" lon="4.6454">
        <ele>625.96</ele>
        <time>2013-01-13T14:38:06Z</time>
      </trkpt>
      <trkpt lat="45.78022" lon="4.64515">
        <ele>625.47</ele>
        <time>2013-01-13T14:38:13Z</time>
      </trkpt>
      <trkpt lat="45.78021" lon="4.64495">
        <ele>624.99</ele>
        <time>2013-01-13T14:38:19Z</time>
      </trkpt>
      <trkpt lat="45.78019" lon="4.64474">
        <ele>625.47</ele>
        <time>2013-01-13T14:38:26Z</time>
      </trkpt>
      <trkpt lat="45.7802" lon="4.64452">
        <ele>625.96</ele>
        <time>2013-01-13T14:38:31Z</time>
      </trkpt>
      <trkpt lat="45.78023" lon="4.64446">
        <ele>625.96</ele>
        <time>2013-01-13T14:38:35Z</time>
      </trkpt>
      <trkpt lat="45.78027" lon="4.64445">
        <ele>624.99</ele>
        <time>2013-01-13T14:38:38Z</time>
      </trkpt>
      <trkpt lat="45.78037" lon="4.6443">
        <ele>629.8</ele>
        <time>2013-01-13T14:38:46Z</time>
      </trkpt>
      <trkpt lat="45.78048" lon="4.64425">
        <ele>634.13</ele>
        <time>2013-01-13T14:38:52Z</time>
      </trkpt>
      <trkpt lat="45.7806" lon="4.64419">
        <ele>637.97</ele>
        <time>2013-01-13T14:38:58Z</time>
      </trkpt>
      <trkpt lat="45.78075" lon="4.64411">
        <ele>640.86</ele>
        <time>2013-01-13T14:39:05Z</time>
      </trkpt>
      <trkpt lat="45.78085" lon="4.64405">
        <ele>643.26</ele>
        <time>2013-01-13T14:39:10Z</time>
      </trkpt>
      <trkpt lat="45.78095" lon="4.64399">
        <ele>646.62</ele>
        <time>2013-01-13T14:39:14Z</time>
      </trkpt>
      <trkpt lat="45.78109" lon="4.64395">
        <ele>646.62</ele>
        <time>2013-01-13T14:39:20Z</time>
      </trkpt>
      <trkpt lat="45.78129" lon="4.64391">
        <ele>645.66</ele>
        <time>2013-01-13T14:39:28Z</time>
      </trkpt>
      <trkpt lat="45.78148" lon="4.64386">
        <ele>646.14</ele>
        <time>2013-01-13T14:39:35Z</time>
      </trkpt>
      <trkpt lat="45.78166" lon="4.64377">
        <ele>648.55</ele>
        <time>2013-01-13T14:39:42Z</time>
      </trkpt>
      <trkpt lat="45.78181" lon="4.64371">
        <ele>649.51</ele>
        <time>2013-01-13T14:39:48Z</time>
      </trkpt>
      <trkpt lat="45.78193" lon="4.64364">
        <ele>649.99</ele>
        <time>2013-01-13T14:39:54Z</time>
      </trkpt>
      <trkpt lat="45.78208" lon="4.64368">
        <ele>651.91</ele>
        <time>2013-01-13T14:39:59Z</time>
      </trkpt>
      <trkpt lat="45.78212" lon="4.64367">
        <ele>652.39</ele>
        <time>2013-01-13T14:40:01Z</time>
      </trkpt>
      <trkpt lat="45.78217" lon="4.64365">
        <ele>652.39</ele>
        <time>2013-01-13T14:40:03Z</time>
      </trkpt>
      <trkpt lat="45.78234" lon="4.64371">
        <ele>650.95</ele>
        <time>2013-01-13T14:40:10Z</time>
      </trkpt>
      <trkpt lat="45.78241" lon="4.64381">
        <ele>650.47</ele>
        <time>2013-01-13T14:40:15Z</time>
      </trkpt>
      <trkpt lat="45.78249" lon="4.64392">
        <ele>648.55</ele>
        <time>2013-01-13T14:40:22Z</time>
      </trkpt>
      <trkpt lat="45.78252" lon="4.64394">
        <ele>647.1</ele>
        <time>2013-01-13T14:40:24Z</time>
      </trkpt>
      <trkpt lat="45.78258" lon="4.64413">
        <ele>645.18</ele>
        <time>2013-01-13T14:40:31Z</time>
      </trkpt>
      <trkpt lat="45.78267" lon="4.6442">
        <ele>641.34</ele>
        <time>2013-01-13T14:40:37Z</time>
      </trkpt>
      <trkpt lat="45.78276" lon="4.64419">
        <ele>639.89</ele>
        <time>2013-01-13T14:40:41Z</time>
      </trkpt>
      <trkpt lat="45.78279" lon="4.64418">
        <ele>639.89</ele>
        <time>2013-01-13T14:40:43Z</time>
      </trkpt>
      <trkpt lat="45.78289" lon="4.64429">
        <ele>639.41</ele>
        <time>2013-01-13T14:40:49Z</time>
      </trkpt>
      <trkpt lat="45.78298" lon="4.64432">
        <ele>639.41</ele>
        <time>2013-01-13T14:40:54Z</time>
      </trkpt>
      <trkpt lat="45.78305" lon="4.64426">
        <ele>638.93</ele>
        <time>2013-01-13T14:40:58Z</time>
      </trkpt>
      <trkpt lat="45.78316" lon="4.64413">
        <ele>636.05</ele>
        <time>2013-01-13T14:41:05Z</time>
      </trkpt>
      <trkpt lat="45.78318" lon="4.64401">
        <ele>636.53</ele>
        <time>2013-01-13T14:41:09Z</time>
      </trkpt>
      <trkpt lat="45.78323" lon="4.64376">
        <ele>635.09</ele>
        <time>2013-01-13T14:41:17Z</time>
      </trkpt>
      <trkpt lat="45.78327" lon="4.64358">
        <ele>634.61</ele>
        <time>2013-01-13T14:41:22Z</time>
      </trkpt>
      <trkpt lat="45.78335" lon="4.6434">
        <ele>631.72</ele>
        <time>2013-01-13T14:41:28Z</time>
      </trkpt>
      <trkpt lat="45.78335" lon="4.64336">
        <ele>631.24</ele>
        <time>2013-01-13T14:41:29Z</time>
      </trkpt>
      <trkpt lat="45.78337" lon="4.64331">
        <ele>630.28</ele>
        <time>2013-01-13T14:41:31Z</time>
      </trkpt>
      <trkpt lat="45.78338" lon="4.64322">
        <ele>627.88</ele>
        <time>2013-01-13T14:41:34Z</time>
      </trkpt>
      <trkpt lat="45.78344" lon="4.64303">
        <ele>622.59</ele>
        <time>2013-01-13T14:41:41Z</time>
      </trkpt>
      <trkpt lat="45.78346" lon="4.64297">
        <ele>620.67</ele>
        <time>2013-01-13T14:41:43Z</time>
      </trkpt>
      <trkpt lat="45.78353" lon="4.64285">
        <ele>615.86</ele>
        <time>2013-01-13T14:41:48Z</time>
      </trkpt>
      <trkpt lat="45.78363" lon="4.64267">
        <ele>611.54</ele>
        <time>2013-01-13T14:41:55Z</time>
      </trkpt>
      <trkpt lat="45.78369" lon="4.64262">
        <ele>611.06</ele>
        <time>2013-01-13T14:41:58Z</time>
      </trkpt>
      <trkpt lat="45.78389" lon="4.64252">
        <ele>612.5</ele>
        <time>2013-01-13T14:42:05Z</time>
      </trkpt>
      <trkpt lat="45.78405" lon="4.64245">
        <ele>613.94</ele>
        <time>2013-01-13T14:42:11Z</time>
      </trkpt>
      <trkpt lat="45.78414" lon="4.64239">
        <ele>614.9</ele>
        <time>2013-01-13T14:42:15Z</time>
      </trkpt>
      <trkpt lat="45.78427" lon="4.64238">
        <ele>614.9</ele>
        <time>2013-01-13T14:42:21Z</time>
      </trkpt>
      <trkpt lat="45.78442" lon="4.64232">
        <ele>615.38</ele>
        <time>2013-01-13T14:42:28Z</time>
      </trkpt>
      <trkpt lat="45.78457" lon="4.64231">
        <ele>615.38</ele>
        <time>2013-01-13T14:42:34Z</time>
      </trkpt>
      <trkpt lat="45.7847" lon="4.64226">
        <ele>614.42</ele>
        <time>2013-01-13T14:42:40Z</time>
      </trkpt>
      <trkpt lat="45.78472" lon="4.64225">
        <ele>614.42</ele>
        <time>2013-01-13T14:42:41Z</time>
      </trkpt>
      <trkpt lat="45.78484" lon="4.64217">
        <ele>611.54</ele>
        <time>2013-01-13T14:42:47Z</time>
      </trkpt>
      <trkpt lat="45.78495" lon="4.6421">
        <ele>606.73</ele>
        <time>2013-01-13T14:42:54Z</time>
      </trkpt>
      <trkpt lat="45.78504" lon="4.64204">
        <ele>603.85</ele>
        <time>2013-01-13T14:43:00Z</time>
      </trkpt>
      <trkpt lat="45.78512" lon="4.64201">
        <ele>600.96</ele>
        <time>2013-01-13T14:43:05Z</time>
      </trkpt>
      <trkpt lat="45.78528" lon="4.64194">
        <ele>597.6</ele>
        <time>2013-01-13T14:43:12Z</time>
      </trkpt>
      <trkpt lat="45.78542" lon="4.64189">
        <ele>597.12</ele>
        <time>2013-01-13T14:43:19Z</time>
      </trkpt>
      <trkpt lat="45.78556" lon="4.64183">
        <ele>595.19</ele>
        <time>2013-01-13T14:43:26Z</time>
      </trkpt>
      <trkpt lat="45.78568" lon="4.64176">
        <ele>591.83</ele>
        <time>2013-01-13T14:43:33Z</time>
      </trkpt>
      <trkpt lat="45.78576" lon="4.64173">
        <ele>589.91</ele>
        <time>2013-01-13T14:43:38Z</time>
      </trkpt>
      <trkpt lat="45.78584" lon="4.64167">
        <ele>588.46</ele>
        <time>2013-01-13T14:43:42Z</time>
      </trkpt>
      <trkpt lat="45.78587" lon="4.64165">
        <ele>587.5</ele>
        <time>2013-01-13T14:43:44Z</time>
      </trkpt>
      <trkpt lat="45.78592" lon="4.64168">
        <ele>586.54</ele>
        <time>2013-01-13T14:43:48Z</time>
      </trkpt>
      <trkpt lat="45.78594" lon="4.64177">
        <ele>583.18</ele>
        <time>2013-01-13T14:43:55Z</time>
      </trkpt>
      <trkpt lat="45.78598" lon="4.64189">
        <ele>577.41</ele>
        <time>2013-01-13T14:44:03Z</time>
      </trkpt>
      <trkpt lat="45.786" lon="4.64201">
        <ele>569.24</ele>
        <time>2013-01-13T14:44:10Z</time>
      </trkpt>
      <trkpt lat="45.78602" lon="4.64212">
        <ele>559.62</ele>
        <time>2013-01-13T14:44:18Z</time>
      </trkpt>
      <trkpt lat="45.78599" lon="4.6423">
        <ele>550.49</ele>
        <time>2013-01-13T14:44:26Z</time>
      </trkpt>
      <trkpt lat="45.78594" lon="4.6425">
        <ele>544.24</ele>
        <time>2013-01-13T14:44:33Z</time>
      </trkpt>
      <trkpt lat="45.7859" lon="4.64265">
        <ele>538.48</ele>
        <time>2013-01-13T14:44:41Z</time>
      </trkpt>
      <trkpt lat="45.78587" lon="4.64278">
        <ele>534.63</ele>
        <time>2013-01-13T14:44:47Z</time>
      </trkpt>
      <trkpt lat="45.78584" lon="4.64291">
        <ele>531.27</ele>
        <time>2013-01-13T14:44:54Z</time>
      </trkpt>
      <trkpt lat="45.78585" lon="4.64308">
        <ele>525.98</ele>
        <time>2013-01-13T14:45:01Z</time>
      </trkpt>
      <trkpt lat="45.78588" lon="4.64328">
        <ele>521.17</ele>
        <time>2013-01-13T14:45:08Z</time>
      </trkpt>
      <trkpt lat="45.78596" lon="4.64352">
        <ele>517.81</ele>
        <time>2013-01-13T14:45:16Z</time>
      </trkpt>
      <trkpt lat="45.78608" lon="4.64385">
        <ele>519.25</ele>
        <time>2013-01-13T14:45:25Z</time>
      </trkpt>
      <trkpt lat="45.7861" lon="4.64391">
        <ele>520.21</ele>
        <time>2013-01-13T14:45:27Z</time>
      </trkpt>
      <trkpt lat="45.78618" lon="4.64413">
        <ele>515.4</ele>
        <time>2013-01-13T14:45:36Z</time>
      </trkpt>
      <trkpt lat="45.78625" lon="4.6443">
        <ele>510.6</ele>
        <time>2013-01-13T14:45:44Z</time>
      </trkpt>
      <trkpt lat="45.78634" lon="4.64455">
        <ele>505.79</ele>
        <time>2013-01-13T14:45:53Z</time>
      </trkpt>
      <trkpt lat="45.78637" lon="4.6447">
        <ele>502.43</ele>
        <time>2013-01-13T14:46:01Z</time>
      </trkpt>
      <trkpt lat="45.78637" lon="4.64473">
        <ele>502.43</ele>
        <time>2013-01-13T14:46:02Z</time>
      </trkpt>
      <trkpt lat="45.78638" lon="4.64502">
        <ele>502.43</ele>
        <time>2013-01-13T14:46:11Z</time>
      </trkpt>
      <trkpt lat="45.78642" lon="4.64525">
        <ele>496.66</ele>
        <time>2013-01-13T14:46:19Z</time>
      </trkpt>
      <trkpt lat="45.78642" lon="4.64542">
        <ele>490.41</ele>
        <time>2013-01-13T14:46:26Z</time>
      </trkpt>
      <trkpt lat="45.78637" lon="4.64558">
        <ele>489.45</ele>
        <time>2013-01-13T14:46:34Z</time>
      </trkpt>
      <trkpt lat="45.78632" lon="4.64575">
        <ele>489.45</ele>
        <time>2013-01-13T14:46:41Z</time>
      </trkpt>
      <trkpt lat="45.7863" lon="4.64592">
        <ele>490.41</ele>
        <time>2013-01-13T14:46:47Z</time>
      </trkpt>
      <trkpt lat="45.78631" lon="4.64623">
        <ele>493.77</ele>
        <time>2013-01-13T14:46:56Z</time>
      </trkpt>
      <trkpt lat="45.7863" lon="4.64652">
        <ele>498.1</ele>
        <time>2013-01-13T14:47:04Z</time>
      </trkpt>
      <trkpt lat="45.78629" lon="4.64682">
        <ele>507.71</ele>
        <time>2013-01-13T14:47:10Z</time>
      </trkpt>
      <trkpt lat="45.78633" lon="4.64706">
        <ele>513.96</ele>
        <time>2013-01-13T14:47:17Z</time>
      </trkpt>
      <trkpt lat="45.78639" lon="4.64728">
        <ele>520.69</ele>
        <time>2013-01-13T14:47:25Z</time>
      </trkpt>
      <trkpt lat="45.78641" lon="4.64734">
        <ele>522.61</ele>
        <time>2013-01-13T14:47:27Z</time>
      </trkpt>
      <trkpt lat="45.78643" lon="4.6475">
        <ele>530.3</ele>
        <time>2013-01-13T14:47:32Z</time>
      </trkpt>
      <trkpt lat="45.78646" lon="4.64763">
        <ele>533.19</ele>
        <time>2013-01-13T14:47:38Z</time>
      </trkpt>
      <trkpt lat="45.78645" lon="4.6477">
        <ele>534.63</ele>
        <time>2013-01-13T14:47:41Z</time>
      </trkpt>
      <trkpt lat="45.78641" lon="4.64786">
        <ele>532.23</ele>
        <time>2013-01-13T14:47:49Z</time>
      </trkpt>
      <trkpt lat="45.7864" lon="4.64799">
        <ele>528.86</ele>
        <time>2013-01-13T14:47:56Z</time>
      </trkpt>
      <trkpt lat="45.78638" lon="4.64812">
        <ele>525.5</ele>
        <time>2013-01-13T14:48:04Z</time>
      </trkpt>
      <trkpt lat="45.78634" lon="4.64819">
        <ele>526.46</ele>
        <time>2013-01-13T14:48:09Z</time>
      </trkpt>
      <trkpt lat="45.78626" lon="4.64826">
        <ele>526.94</ele>
        <time>2013-01-13T14:48:15Z</time>
      </trkpt>
      <trkpt lat="45.78624" lon="4.64824">
        <ele>527.42</ele>
        <time>2013-01-13T14:48:17Z</time>
      </trkpt>
      <trkpt lat="45.78615" lon="4.6482">
        <ele>527.42</ele>
        <time>2013-01-13T14:48:25Z</time>
      </trkpt>
      <trkpt lat="45.78606" lon="4.64816">
        <ele>529.82</ele>
        <time>2013-01-13T14:48:32Z</time>
      </trkpt>
      <trkpt lat="45.78593" lon="4.64814">
        <ele>537.03</ele>
        <time>2013-01-13T14:48:38Z</time>
      </trkpt>
      <trkpt lat="45.78581" lon="4.64809">
        <ele>548.57</ele>
        <time>2013-01-13T14:48:45Z</time>
      </trkpt>
      <trkpt lat="45.78576" lon="4.64802">
        <ele>550.49</ele>
        <time>2013-01-13T14:48:50Z</time>
      </trkpt>
      <trkpt lat="45.7857" lon="4.64796">
        <ele>552.41</ele>
        <time>2013-01-13T14:48:56Z</time>
      </trkpt>
      <trkpt lat="45.78569" lon="4.64794">
        <ele>552.9</ele>
        <time>2013-01-13T14:48:57Z</time>
      </trkpt>
      <trkpt lat="45.78557" lon="4.64785">
        <ele>552.41</ele>
        <time>2013-01-13T14:49:04Z</time>
      </trkpt>
      <trkpt lat="45.78547" lon="4.6477">
        <ele>555.3</ele>
        <time>2013-01-13T14:49:12Z</time>
      </trkpt>
      <trkpt lat="45.78544" lon="4.64764">
        <ele>557.7</ele>
        <time>2013-01-13T14:49:14Z</time>
      </trkpt>
      <trkpt lat="45.78533" lon="4.64739">
        <ele>568.76</ele>
        <time>2013-01-13T14:49:22Z</time>
      </trkpt>
      <trkpt lat="45.78526" lon="4.64719">
        <ele>574.04</ele>
        <time>2013-01-13T14:49:29Z</time>
      </trkpt>
      <trkpt lat="45.78516" lon="4.64696">
        <ele>580.77</ele>
        <time>2013-01-13T14:49:36Z</time>
      </trkpt>
      <trkpt lat="45.78508" lon="4.64675">
        <ele>585.58</ele>
        <time>2013-01-13T14:49:42Z</time>
      </trkpt>
      <trkpt lat="45.78502" lon="4.64663">
        <ele>587.98</ele>
        <time>2013-01-13T14:49:46Z</time>
      </trkpt>
      <trkpt lat="45.78499" lon="4.64656">
        <ele>589.43</ele>
        <time>2013-01-13T14:49:49Z</time>
      </trkpt>
      <trkpt lat="45.78487" lon="4.64636">
        <ele>589.91</ele>
        <time>2013-01-13T14:49:57Z</time>
      </trkpt>
      <trkpt lat="45.78477" lon="4.64615">
        <ele>588.46</ele>
        <time>2013-01-13T14:50:05Z</time>
      </trkpt>
      <trkpt lat="45.78469" lon="4.64599">
        <ele>586.06</ele>
        <time>2013-01-13T14:50:13Z</time>
      </trkpt>
      <trkpt lat="45.78463" lon="4.64586">
        <ele>585.58</ele>
        <time>2013-01-13T14:50:17Z</time>
      </trkpt>
      <trkpt lat="45.78456" lon="4.64574">
        <ele>583.66</ele>
        <time>2013-01-13T14:50:22Z</time>
      </trkpt>
      <trkpt lat="45.78448" lon="4.64563">
        <ele>584.14</ele>
        <time>2013-01-13T14:50:26Z</time>
      </trkpt>
      <trkpt lat="45.78439" lon="4.64543">
        <ele>585.58</ele>
        <time>2013-01-13T14:50:33Z</time>
      </trkpt>
      <trkpt lat="45.78437" lon="4.64538">
        <ele>585.58</ele>
        <time>2013-01-13T14:50:35Z</time>
      </trkpt>
      <trkpt lat="45.78437" lon="4.64524">
        <ele>586.06</ele>
        <time>2013-01-13T14:50:39Z</time>
      </trkpt>
      <trkpt lat="45.78436" lon="4.64503">
        <ele>589.91</ele>
        <time>2013-01-13T14:50:46Z</time>
      </trkpt>
      <trkpt lat="45.78434" lon="4.64491">
        <ele>591.35</ele>
        <time>2013-01-13T14:50:50Z</time>
      </trkpt>
      <trkpt lat="45.78426" lon="4.64482">
        <ele>588.46</ele>
        <time>2013-01-13T14:50:57Z</time>
      </trkpt>
      <trkpt lat="45.78414" lon="4.64459">
        <ele>588.46</ele>
        <time>2013-01-13T14:51:06Z</time>
      </trkpt>
      <trkpt lat="45.78402" lon="4.64437">
        <ele>592.31</ele>
        <time>2013-01-13T14:51:13Z</time>
      </trkpt>
      <trkpt lat="45.78389" lon="4.64426">
        <ele>592.31</ele>
        <time>2013-01-13T14:51:21Z</time>
      </trkpt>
      <trkpt lat="45.78374" lon="4.64423">
        <ele>595.19</ele>
        <time>2013-01-13T14:51:27Z</time>
      </trkpt>
      <trkpt lat="45.7836" lon="4.6443">
        <ele>593.75</ele>
        <time>2013-01-13T14:51:34Z</time>
      </trkpt>
      <trkpt lat="45.78352" lon="4.64432">
        <ele>590.87</ele>
        <time>2013-01-13T14:51:38Z</time>
      </trkpt>
      <trkpt lat="45.78347" lon="4.64435">
        <ele>588.46</ele>
        <time>2013-01-13T14:51:42Z</time>
      </trkpt>
      <trkpt lat="45.78347" lon="4.64449">
        <ele>582.22</ele>
        <time>2013-01-13T14:51:49Z</time>
      </trkpt>
      <trkpt lat="45.78347" lon="4.64453">
        <ele>581.73</ele>
        <time>2013-01-13T14:51:55Z</time>
      </trkpt>
      <trkpt lat="45.78347" lon="4.64454">
        <ele>582.22</ele>
        <time>2013-01-13T14:52:07Z</time>
      </trkpt>
      <trkpt lat="45.78347" lon="4.64459">
        <ele>580.77</ele>
        <time>2013-01-13T14:52:15Z</time>
      </trkpt>
      <trkpt lat="45.78349" lon="4.64471">
        <ele>577.89</ele>
        <time>2013-01-13T14:52:20Z</time>
      </trkpt>
      <trkpt lat="45.78349" lon="4.64475">
        <ele>576.45</ele>
        <time>2013-01-13T14:52:22Z</time>
      </trkpt>
      <trkpt lat="45.78352" lon="4.64491">
        <ele>567.8</ele>
        <time>2013-01-13T14:52:29Z</time>
      </trkpt>
      <trkpt lat="45.78355" lon="4.64506">
        <ele>558.18</ele>
        <time>2013-01-13T14:52:37Z</time>
      </trkpt>
      <trkpt lat="45.78357" lon="4.6451">
        <ele>555.78</ele>
        <time>2013-01-13T14:52:39Z</time>
      </trkpt>
      <trkpt lat="45.78365" lon="4.64541">
        <ele>549.05</ele>
        <time>2013-01-13T14:52:48Z</time>
      </trkpt>
      <trkpt lat="45.78368" lon="4.64558">
        <ele>550.97</ele>
        <time>2013-01-13T14:52:54Z</time>
      </trkpt>
      <trkpt lat="45.78366" lon="4.64569">
        <ele>553.86</ele>
        <time>2013-01-13T14:52:56Z</time>
      </trkpt>
      <trkpt lat="45.78365" lon="4.64588">
        <ele>555.78</ele>
        <time>2013-01-13T14:53:03Z</time>
      </trkpt>
      <trkpt lat="45.78363" lon="4.64589">
        <ele>555.3</ele>
        <time>2013-01-13T14:53:04Z</time>
      </trkpt>
      <trkpt lat="45.78353" lon="4.64594">
        <ele>547.61</ele>
        <time>2013-01-13T14:53:14Z</time>
      </trkpt>
      <trkpt lat="45.78347" lon="4.64596">
        <ele>542.8</ele>
        <time>2013-01-13T14:53:20Z</time>
      </trkpt>
      <trkpt lat="45.78337" lon="4.64604">
        <ele>537.03</ele>
        <time>2013-01-13T14:53:27Z</time>
      </trkpt>
      <trkpt lat="45.78317" lon="4.64617">
        <ele>526.46</ele>
        <time>2013-01-13T14:53:40Z</time>
      </trkpt>
      <trkpt lat="45.78307" lon="4.64638">
        <ele>520.69</ele>
        <time>2013-01-13T14:53:49Z</time>
      </trkpt>
      <trkpt lat="45.78306" lon="4.64681">
        <ele>511.08</ele>
        <time>2013-01-13T14:54:00Z</time>
      </trkpt>
      <trkpt lat="45.7832" lon="4.64714">
        <ele>498.58</ele>
        <time>2013-01-13T14:54:14Z</time>
      </trkpt>
      <trkpt lat="45.78336" lon="4.64747">
        <ele>488.01</ele>
        <time>2013-01-13T14:54:26Z</time>
      </trkpt>
      <trkpt lat="45.78354" lon="4.64784">
        <ele>477.43</ele>
        <time>2013-01-13T14:54:39Z</time>
      </trkpt>
      <trkpt lat="45.78372" lon="4.64816">
        <ele>470.22</ele>
        <time>2013-01-13T14:54:51Z</time>
      </trkpt>
      <trkpt lat="45.78382" lon="4.64846">
        <ele>465.42</ele>
        <time>2013-01-13T14:55:01Z</time>
      </trkpt>
      <trkpt lat="45.78407" lon="4.64871">
        <ele>470.22</ele>
        <time>2013-01-13T14:55:11Z</time>
      </trkpt>
      <trkpt lat="45.78407" lon="4.64921">
        <ele>484.64</ele>
        <time>2013-01-13T14:55:21Z</time>
      </trkpt>
      <trkpt lat="45.78414" lon="4.64954">
        <ele>474.55</ele>
        <time>2013-01-13T14:55:31Z</time>
      </trkpt>
      <trkpt lat="45.78415" lon="4.64967">
        <ele>467.34</ele>
        <time>2013-01-13T14:55:38Z</time>
      </trkpt>
      <trkpt lat="45.78415" lon="4.64967">
        <ele>466.38</ele>
        <time>2013-01-13T14:55:39Z</time>
      </trkpt>
      <trkpt lat="45.78433" lon="4.64973">
        <ele>453.4</ele>
        <time>2013-01-13T14:55:50Z</time>
      </trkpt>
      <trkpt lat="45.78456" lon="4.64971">
        <ele>440.42</ele>
        <time>2013-01-13T14:56:00Z</time>
      </trkpt>
      <trkpt lat="45.78476" lon="4.64971">
        <ele>435.61</ele>
        <time>2013-01-13T14:56:09Z</time>
      </trkpt>
      <trkpt lat="45.78503" lon="4.64966">
        <ele>439.94</ele>
        <time>2013-01-13T14:56:20Z</time>
      </trkpt>
      <trkpt lat="45.78525" lon="4.64957">
        <ele>448.59</ele>
        <time>2013-01-13T14:56:30Z</time>
      </trkpt>
      <trkpt lat="45.78535" lon="4.64954">
        <ele>450.52</ele>
        <time>2013-01-13T14:56:34Z</time>
      </trkpt>
      <trkpt lat="45.78567" lon="4.64961">
        <ele>453.88</ele>
        <time>2013-01-13T14:56:47Z</time>
      </trkpt>
      <trkpt lat="45.78571" lon="4.64964">
        <ele>454.36</ele>
        <time>2013-01-13T14:56:49Z</time>
      </trkpt>
      <trkpt lat="45.78589" lon="4.64982">
        <ele>456.76</ele>
        <time>2013-01-13T14:56:57Z</time>
      </trkpt>
      <trkpt lat="45.78616" lon="4.65003">
        <ele>463.97</ele>
        <time>2013-01-13T14:57:08Z</time>
      </trkpt>
      <trkpt lat="45.78628" lon="4.65005">
        <ele>465.42</ele>
        <time>2013-01-13T14:57:13Z</time>
      </trkpt>
      <trkpt lat="45.78651" lon="4.65017">
        <ele>489.45</ele>
        <time>2013-01-13T14:57:22Z</time>
      </trkpt>
      <trkpt lat="45.78671" lon="4.65033">
        <ele>508.19</ele>
        <time>2013-01-13T14:57:31Z</time>
      </trkpt>
      <trkpt lat="45.78698" lon="4.65036">
        <ele>520.21</ele>
        <time>2013-01-13T14:57:40Z</time>
      </trkpt>
      <trkpt lat="45.78714" lon="4.65028">
        <ele>526.46</ele>
        <time>2013-01-13T14:57:48Z</time>
      </trkpt>
      <trkpt lat="45.78727" lon="4.6503">
        <ele>528.86</ele>
        <time>2013-01-13T14:57:56Z</time>
      </trkpt>
      <trkpt lat="45.78745" lon="4.65044">
        <ele>529.82</ele>
        <time>2013-01-13T14:58:05Z</time>
      </trkpt>
      <trkpt lat="45.78773" lon="4.65061">
        <ele>536.07</ele>
        <time>2013-01-13T14:58:13Z</time>
      </trkpt>
      <trkpt lat="45.78788" lon="4.6508">
        <ele>539.92</ele>
        <time>2013-01-13T14:58:22Z</time>
      </trkpt>
      <trkpt lat="45.78798" lon="4.65094">
        <ele>540.4</ele>
        <time>2013-01-13T14:58:30Z</time>
      </trkpt>
      <trkpt lat="45.78803" lon="4.65106">
        <ele>539.92</ele>
        <time>2013-01-13T14:58:36Z</time>
      </trkpt>
      <trkpt lat="45.78816" lon="4.65132">
        <ele>538.48</ele>
        <time>2013-01-13T14:58:47Z</time>
      </trkpt>
      <trkpt lat="45.78828" lon="4.65146">
        <ele>536.55</ele>
        <time>2013-01-13T14:58:56Z</time>
      </trkpt>
      <trkpt lat="45.78844" lon="4.65167">
        <ele>533.67</ele>
        <time>2013-01-13T14:59:05Z</time>
      </trkpt>
      <trkpt lat="45.78865" lon="4.65178">
        <ele>526.94</ele>
        <time>2013-01-13T14:59:15Z</time>
      </trkpt>
      <trkpt lat="45.78886" lon="4.65196">
        <ele>519.25</ele>
        <time>2013-01-13T14:59:26Z</time>
      </trkpt>
      <trkpt lat="45.78896" lon="4.6521">
        <ele>513.96</ele>
        <time>2013-01-13T14:59:32Z</time>
      </trkpt>
      <trkpt lat="45.789" lon="4.65219">
        <ele>511.56</ele>
        <time>2013-01-13T14:59:35Z</time>
      </trkpt>
      <trkpt lat="45.7891" lon="4.65233">
        <ele>507.71</ele>
        <time>2013-01-13T14:59:41Z</time>
      </trkpt>
      <trkpt lat="45.78899" lon="4.65229">
        <ele>500.98</ele>
        <time>2013-01-13T14:59:50Z</time>
      </trkpt>
      <trkpt lat="45.78884" lon="4.6522">
        <ele>494.74</ele>
        <time>2013-01-13T14:59:59Z</time>
      </trkpt>
      <trkpt lat="45.78871" lon="4.65215">
        <ele>489.93</ele>
        <time>2013-01-13T15:00:06Z</time>
      </trkpt>
      <trkpt lat="45.78843" lon="4.6521">
        <ele>481.76</ele>
        <time>2013-01-13T15:00:18Z</time>
      </trkpt>
      <trkpt lat="45.78822" lon="4.65204">
        <ele>477.91</ele>
        <time>2013-01-13T15:00:30Z</time>
      </trkpt>
      <trkpt lat="45.78801" lon="4.65204">
        <ele>473.59</ele>
        <time>2013-01-13T15:00:38Z</time>
      </trkpt>
      <trkpt lat="45.78797" lon="4.65202">
        <ele>472.63</ele>
        <time>2013-01-13T15:00:40Z</time>
      </trkpt>
      <trkpt lat="45.78771" lon="4.65199">
        <ele>466.38</ele>
        <time>2013-01-13T15:00:51Z</time>
      </trkpt>
      <trkpt lat="45.78752" lon="4.65201">
        <ele>463.97</ele>
        <time>2013-01-13T15:00:59Z</time>
      </trkpt>
      <trkpt lat="45.78735" lon="4.65199">
        <ele>461.09</ele>
        <time>2013-01-13T15:01:08Z</time>
      </trkpt>
      <trkpt lat="45.78733" lon="4.652">
        <ele>461.09</ele>
        <time>2013-01-13T15:01:09Z</time>
      </trkpt>
      <trkpt lat="45.78715" lon="4.65207">
        <ele>457.72</ele>
        <time>2013-01-13T15:01:18Z</time>
      </trkpt>
      <trkpt lat="45.78691" lon="4.65221">
        <ele>454.36</ele>
        <time>2013-01-13T15:01:30Z</time>
      </trkpt>
      <trkpt lat="45.78687" lon="4.65224">
        <ele>453.4</ele>
        <time>2013-01-13T15:01:42Z</time>
      </trkpt>
      <trkpt lat="45.78661" lon="4.65229">
        <ele>445.71</ele>
        <time>2013-01-13T15:01:52Z</time>
      </trkpt>
      <trkpt lat="45.78639" lon="4.65258">
        <ele>463.01</ele>
        <time>2013-01-13T15:02:02Z</time>
      </trkpt>
      <trkpt lat="45.78641" lon="4.65275">
        <ele>467.34</ele>
        <time>2013-01-13T15:02:13Z</time>
      </trkpt>
      <trkpt lat="45.78638" lon="4.65284">
        <ele>466.86</ele>
        <time>2013-01-13T15:02:18Z</time>
      </trkpt>
      <trkpt lat="45.78641" lon="4.65313">
        <ele>468.3</ele>
        <time>2013-01-13T15:02:27Z</time>
      </trkpt>
      <trkpt lat="45.78633" lon="4.6536">
        <ele>472.63</ele>
        <time>2013-01-13T15:02:39Z</time>
      </trkpt>
      <trkpt lat="45.78638" lon="4.65406">
        <ele>473.59</ele>
        <time>2013-01-13T15:02:51Z</time>
      </trkpt>
      <trkpt lat="45.7864" lon="4.65444">
        <ele>471.18</ele>
        <time>2013-01-13T15:03:03Z</time>
      </trkpt>
      <trkpt lat="45.78627" lon="4.65462">
        <ele>466.38</ele>
        <time>2013-01-13T15:03:12Z</time>
      </trkpt>
      <trkpt lat="45.78624" lon="4.65467">
        <ele>466.38</ele>
        <time>2013-01-13T15:03:13Z</time>
      </trkpt>
      <trkpt lat="45.78615" lon="4.65483">
        <ele>467.34</ele>
        <time>2013-01-13T15:03:17Z</time>
      </trkpt>
      <trkpt lat="45.78594" lon="4.65514">
        <ele>467.34</ele>
        <time>2013-01-13T15:03:28Z</time>
      </trkpt>
      <trkpt lat="45.78573" lon="4.65531">
        <ele>464.45</ele>
        <time>2013-01-13T15:03:39Z</time>
      </trkpt>
      <trkpt lat="45.78563" lon="4.65533">
        <ele>464.93</ele>
        <time>2013-01-13T15:03:45Z</time>
      </trkpt>
      <trkpt lat="45.78556" lon="4.65545">
        <ele>467.34</ele>
        <time>2013-01-13T15:03:52Z</time>
      </trkpt>
      <trkpt lat="45.78547" lon="4.65573">
        <ele>472.14</ele>
        <time>2013-01-13T15:04:01Z</time>
      </trkpt>
      <trkpt lat="45.7854" lon="4.65597">
        <ele>473.11</ele>
        <time>2013-01-13T15:04:10Z</time>
      </trkpt>
      <trkpt lat="45.78527" lon="4.6562">
        <ele>471.66</ele>
        <time>2013-01-13T15:04:18Z</time>
      </trkpt>
      <trkpt lat="45.78524" lon="4.65632">
        <ele>470.22</ele>
        <time>2013-01-13T15:04:22Z</time>
      </trkpt>
      <trkpt lat="45.7851" lon="4.65669">
        <ele>464.93</ele>
        <time>2013-01-13T15:04:33Z</time>
      </trkpt>
      <trkpt lat="45.78498" lon="4.65702">
        <ele>458.69</ele>
        <time>2013-01-13T15:04:44Z</time>
      </trkpt>
      <trkpt lat="45.78493" lon="4.65723">
        <ele>456.76</ele>
        <time>2013-01-13T15:04:54Z</time>
      </trkpt>
      <trkpt lat="45.78486" lon="4.65741">
        <ele>459.17</ele>
        <time>2013-01-13T15:05:03Z</time>
      </trkpt>
      <trkpt lat="45.78483" lon="4.65755">
        <ele>458.21</ele>
        <time>2013-01-13T15:05:10Z</time>
      </trkpt>
      <trkpt lat="45.78484" lon="4.65756">
        <ele>458.21</ele>
        <time>2013-01-13T15:05:19Z</time>
      </trkpt>
      <trkpt lat="45.78481" lon="4.65766">
        <ele>456.76</ele>
        <time>2013-01-13T15:05:23Z</time>
      </trkpt>
      <trkpt lat="45.7848" lon="4.65825">
        <ele>455.8</ele>
        <time>2013-01-13T15:05:33Z</time>
      </trkpt>
      <trkpt lat="45.78482" lon="4.65865">
        <ele>460.61</ele>
        <time>2013-01-13T15:05:40Z</time>
      </trkpt>
      <trkpt lat="45.78486" lon="4.65899">
        <ele>463.97</ele>
        <time>2013-01-13T15:05:48Z</time>
      </trkpt>
      <trkpt lat="45.78474" lon="4.65909">
        <ele>464.45</ele>
        <time>2013-01-13T15:05:55Z</time>
      </trkpt>
      <trkpt lat="45.78454" lon="4.65899">
        <ele>463.97</ele>
        <time>2013-01-13T15:06:05Z</time>
      </trkpt>
      <trkpt lat="45.78436" lon="4.65891">
        <ele>462.53</ele>
        <time>2013-01-13T15:06:13Z</time>
      </trkpt>
      <trkpt lat="45.78416" lon="4.65888">
        <ele>461.57</ele>
        <time>2013-01-13T15:06:24Z</time>
      </trkpt>
      <trkpt lat="45.78412" lon="4.6589">
        <ele>461.57</ele>
        <time>2013-01-13T15:06:27Z</time>
      </trkpt>
      <trkpt lat="45.78399" lon="4.65921">
        <ele>460.13</ele>
        <time>2013-01-13T15:06:37Z</time>
      </trkpt>
      <trkpt lat="45.78399" lon="4.65961">
        <ele>457.72</ele>
        <time>2013-01-13T15:06:47Z</time>
      </trkpt>
      <trkpt lat="45.78395" lon="4.66">
        <ele>456.76</ele>
        <time>2013-01-13T15:06:58Z</time>
      </trkpt>
      <trkpt lat="45.78397" lon="4.66036">
        <ele>452.92</ele>
        <time>2013-01-13T15:07:10Z</time>
      </trkpt>
      <trkpt lat="45.78397" lon="4.66061">
        <ele>449.55</ele>
        <time>2013-01-13T15:07:19Z</time>
      </trkpt>
      <trkpt lat="45.78398" lon="4.66091">
        <ele>441.86</ele>
        <time>2013-01-13T15:07:30Z</time>
      </trkpt>
      <trkpt lat="45.78394" lon="4.66133">
        <ele>436.58</ele>
        <time>2013-01-13T15:07:40Z</time>
      </trkpt>
      <trkpt lat="45.78387" lon="4.66159">
        <ele>434.65</ele>
        <time>2013-01-13T15:07:48Z</time>
      </trkpt>
      <trkpt lat="45.78385" lon="4.66175">
        <ele>427.92</ele>
        <time>2013-01-13T15:07:57Z</time>
      </trkpt>
      <trkpt lat="45.78373" lon="4.66209">
        <ele>424.56</ele>
        <time>2013-01-13T15:08:06Z</time>
      </trkpt>
      <trkpt lat="45.7837" lon="4.66215">
        <ele>424.08</ele>
        <time>2013-01-13T15:08:08Z</time>
      </trkpt>
      <trkpt lat="45.78358" lon="4.66231">
        <ele>414.47</ele>
        <time>2013-01-13T15:08:19Z</time>
      </trkpt>
      <trkpt lat="45.78344" lon="4.66252">
        <ele>408.7</ele>
        <time>2013-01-13T15:08:29Z</time>
      </trkpt>
      <trkpt lat="45.78326" lon="4.66288">
        <ele>415.43</ele>
        <time>2013-01-13T15:08:38Z</time>
      </trkpt>
      <trkpt lat="45.78311" lon="4.66307">
        <ele>418.79</ele>
        <time>2013-01-13T15:08:47Z</time>
      </trkpt>
      <trkpt lat="45.78295" lon="4.66322">
        <ele>421.68</ele>
        <time>2013-01-13T15:08:55Z</time>
      </trkpt>
      <trkpt lat="45.78291" lon="4.66324">
        <ele>423.12</ele>
        <time>2013-01-13T15:08:57Z</time>
      </trkpt>
      <trkpt lat="45.78283" lon="4.66313">
        <ele>427.44</ele>
        <time>2013-01-13T15:09:06Z</time>
      </trkpt>
      <trkpt lat="45.78278" lon="4.66294">
        <ele>429.85</ele>
        <time>2013-01-13T15:09:15Z</time>
      </trkpt>
      <trkpt lat="45.78277" lon="4.66275">
        <ele>433.69</ele>
        <time>2013-01-13T15:09:24Z</time>
      </trkpt>
      <trkpt lat="45.78276" lon="4.66255">
        <ele>436.58</ele>
        <time>2013-01-13T15:09:32Z</time>
      </trkpt>
      <trkpt lat="45.78272" lon="4.66234">
        <ele>438.5</ele>
        <time>2013-01-13T15:09:40Z</time>
      </trkpt>
      <trkpt lat="45.78269" lon="4.6621">
        <ele>440.42</ele>
        <time>2013-01-13T15:09:50Z</time>
      </trkpt>
      <trkpt lat="45.78269" lon="4.66193">
        <ele>442.34</ele>
        <time>2013-01-13T15:09:58Z</time>
      </trkpt>
      <trkpt lat="45.78263" lon="4.66172">
        <ele>444.27</ele>
        <time>2013-01-13T15:10:08Z</time>
      </trkpt>
      <trkpt lat="45.78263" lon="4.66168">
        <ele>444.75</ele>
        <time>2013-01-13T15:10:10Z</time>
      </trkpt>
      <trkpt lat="45.7826" lon="4.66153">
        <ele>447.15</ele>
        <time>2013-01-13T15:10:18Z</time>
      </trkpt>
      <trkpt lat="45.78259" lon="4.66144">
        <ele>448.59</ele>
        <time>2013-01-13T15:10:22Z</time>
      </trkpt>
      <trkpt lat="45.78257" lon="4.66124">
        <ele>451.48</ele>
        <time>2013-01-13T15:10:31Z</time>
      </trkpt>
      <trkpt lat="45.78249" lon="4.66108">
        <ele>454.36</ele>
        <time>2013-01-13T15:10:40Z</time>
      </trkpt>
      <trkpt lat="45.78244" lon="4.66091">
        <ele>456.76</ele>
        <time>2013-01-13T15:10:49Z</time>
      </trkpt>
      <trkpt lat="45.78241" lon="4.66075">
        <ele>459.17</ele>
        <time>2013-01-13T15:10:57Z</time>
      </trkpt>
      <trkpt lat="45.78227" lon="4.66057">
        <ele>462.05</ele>
        <time>2013-01-13T15:11:06Z</time>
      </trkpt>
      <trkpt lat="45.78216" lon="4.66041">
        <ele>464.93</ele>
        <time>2013-01-13T15:11:14Z</time>
      </trkpt>
      <trkpt lat="45.78204" lon="4.6602">
        <ele>467.82</ele>
        <time>2013-01-13T15:11:23Z</time>
      </trkpt>
      <trkpt lat="45.7819" lon="4.65997">
        <ele>471.66</ele>
        <time>2013-01-13T15:11:33Z</time>
      </trkpt>
      <trkpt lat="45.78178" lon="4.65973">
        <ele>475.99</ele>
        <time>2013-01-13T15:11:42Z</time>
      </trkpt>
      <trkpt lat="45.78168" lon="4.65948">
        <ele>479.84</ele>
        <time>2013-01-13T15:11:51Z</time>
      </trkpt>
      <trkpt lat="45.78168" lon="4.65944">
        <ele>481.28</ele>
        <time>2013-01-13T15:11:53Z</time>
      </trkpt>
      <trkpt lat="45.78163" lon="4.65916">
        <ele>484.64</ele>
        <time>2013-01-13T15:12:04Z</time>
      </trkpt>
      <trkpt lat="45.78162" lon="4.65896">
        <ele>487.53</ele>
        <time>2013-01-13T15:12:12Z</time>
      </trkpt>
      <trkpt lat="45.7816" lon="4.65879">
        <ele>489.45</ele>
        <time>2013-01-13T15:12:20Z</time>
      </trkpt>
      <trkpt lat="45.78159" lon="4.65876">
        <ele>489.93</ele>
        <time>2013-01-13T15:12:21Z</time>
      </trkpt>
      <trkpt lat="45.78155" lon="4.6586">
        <ele>491.37</ele>
        <time>2013-01-13T15:12:27Z</time>
      </trkpt>
      <trkpt lat="45.78155" lon="4.6584">
        <ele>494.26</ele>
        <time>2013-01-13T15:12:35Z</time>
      </trkpt>
      <trkpt lat="45.78154" lon="4.65839">
        <ele>494.74</ele>
        <time>2013-01-13T15:12:36Z</time>
      </trkpt>
      <trkpt lat="45.78154" lon="4.65822">
        <ele>495.7</ele>
        <time>2013-01-13T15:12:42Z</time>
      </trkpt>
      <trkpt lat="45.78149" lon="4.65801">
        <ele>497.14</ele>
        <time>2013-01-13T15:12:51Z</time>
      </trkpt>
      <trkpt lat="45.78145" lon="4.65781">
        <ele>498.1</ele>
        <time>2013-01-13T15:13:00Z</time>
      </trkpt>
      <trkpt lat="45.78142" lon="4.65765">
        <ele>499.06</ele>
        <time>2013-01-13T15:13:06Z</time>
      </trkpt>
      <trkpt lat="45.78141" lon="4.65758">
        <ele>499.06</ele>
        <time>2013-01-13T15:13:09Z</time>
      </trkpt>
      <trkpt lat="45.78127" lon="4.65726">
        <ele>503.39</ele>
        <time>2013-01-13T15:13:20Z</time>
      </trkpt>
      <trkpt lat="45.7812" lon="4.65697">
        <ele>504.83</ele>
        <time>2013-01-13T15:13:31Z</time>
      </trkpt>
      <trkpt lat="45.78119" lon="4.65677">
        <ele>505.79</ele>
        <time>2013-01-13T15:13:39Z</time>
      </trkpt>
      <trkpt lat="45.78115" lon="4.65644">
        <ele>507.71</ele>
        <time>2013-01-13T15:13:49Z</time>
      </trkpt>
      <trkpt lat="45.78112" lon="4.65615">
        <ele>508.19</ele>
        <time>2013-01-13T15:13:59Z</time>
      </trkpt>
      <trkpt lat="45.78112" lon="4.65599">
        <ele>508.67</ele>
        <time>2013-01-13T15:14:04Z</time>
      </trkpt>
      <trkpt lat="45.78115" lon="4.65567">
        <ele>509.16</ele>
        <time>2013-01-13T15:14:14Z</time>
      </trkpt>
      <trkpt lat="45.78118" lon="4.65547">
        <ele>508.67</ele>
        <time>2013-01-13T15:14:23Z</time>
      </trkpt>
      <trkpt lat="45.78118" lon="4.65544">
        <ele>508.67</ele>
        <time>2013-01-13T15:14:24Z</time>
      </trkpt>
      <trkpt lat="45.78116" lon="4.65531">
        <ele>508.19</ele>
        <time>2013-01-13T15:14:29Z</time>
      </trkpt>
      <trkpt lat="45.78117" lon="4.65508">
        <ele>507.71</ele>
        <time>2013-01-13T15:14:38Z</time>
      </trkpt>
      <trkpt lat="45.78118" lon="4.65482">
        <ele>509.64</ele>
        <time>2013-01-13T15:14:46Z</time>
      </trkpt>
      <trkpt lat="45.7812" lon="4.6546">
        <ele>506.75</ele>
        <time>2013-01-13T15:14:54Z</time>
      </trkpt>
      <trkpt lat="45.78126" lon="4.65421">
        <ele>501.95</ele>
        <time>2013-01-13T15:15:08Z</time>
      </trkpt>
      <trkpt lat="45.78125" lon="4.65395">
        <ele>499.06</ele>
        <time>2013-01-13T15:15:17Z</time>
      </trkpt>
      <trkpt lat="45.78124" lon="4.65383">
        <ele>498.1</ele>
        <time>2013-01-13T15:15:20Z</time>
      </trkpt>
      <trkpt lat="45.7812" lon="4.65347">
        <ele>501.46</ele>
        <time>2013-01-13T15:15:29Z</time>
      </trkpt>
      <trkpt lat="45.78121" lon="4.65318">
        <ele>501.95</ele>
        <time>2013-01-13T15:15:39Z</time>
      </trkpt>
      <trkpt lat="45.78118" lon="4.65288">
        <ele>501.46</ele>
        <time>2013-01-13T15:15:49Z</time>
      </trkpt>
      <trkpt lat="45.78116" lon="4.65258">
        <ele>503.87</ele>
        <time>2013-01-13T15:16:00Z</time>
      </trkpt>
      <trkpt lat="45.78121" lon="4.65234">
        <ele>509.16</ele>
        <time>2013-01-13T15:16:10Z</time>
      </trkpt>
      <trkpt lat="45.78123" lon="4.65209">
        <ele>513.48</ele>
        <time>2013-01-13T15:16:20Z</time>
      </trkpt>
      <trkpt lat="45.78131" lon="4.65186">
        <ele>518.77</ele>
        <time>2013-01-13T15:16:30Z</time>
      </trkpt>
      <trkpt lat="45.78138" lon="4.65157">
        <ele>521.17</ele>
        <time>2013-01-13T15:16:41Z</time>
      </trkpt>
      <trkpt lat="45.7814" lon="4.65142">
        <ele>521.65</ele>
        <time>2013-01-13T15:16:48Z</time>
      </trkpt>
      <trkpt lat="45.78127" lon="4.65133">
        <ele>516.37</ele>
        <time>2013-01-13T15:16:57Z</time>
      </trkpt>
      <trkpt lat="45.78123" lon="4.65134">
        <ele>514.92</ele>
        <time>2013-01-13T15:16:59Z</time>
      </trkpt>
      <trkpt lat="45.78098" lon="4.65147">
        <ele>512.04</ele>
        <time>2013-01-13T15:17:09Z</time>
      </trkpt>
      <trkpt lat="45.78087" lon="4.65159">
        <ele>517.81</ele>
        <time>2013-01-13T15:17:14Z</time>
      </trkpt>
      <trkpt lat="45.78075" lon="4.65171">
        <ele>529.34</ele>
        <time>2013-01-13T15:17:21Z</time>
      </trkpt>
      <trkpt lat="45.78068" lon="4.65179">
        <ele>533.67</ele>
        <time>2013-01-13T15:17:26Z</time>
      </trkpt>
      <trkpt lat="45.78062" lon="4.65186">
        <ele>537.99</ele>
        <time>2013-01-13T15:17:30Z</time>
      </trkpt>
      <trkpt lat="45.78055" lon="4.65192">
        <ele>540.88</ele>
        <time>2013-01-13T15:17:34Z</time>
      </trkpt>
      <trkpt lat="45.78048" lon="4.65204">
        <ele>540.88</ele>
        <time>2013-01-13T15:17:40Z</time>
      </trkpt>
      <trkpt lat="45.78033" lon="4.65228">
        <ele>541.36</ele>
        <time>2013-01-13T15:17:49Z</time>
      </trkpt>
      <trkpt lat="45.78017" lon="4.65261">
        <ele>540.4</ele>
        <time>2013-01-13T15:18:01Z</time>
      </trkpt>
      <trkpt lat="45.78002" lon="4.65296">
        <ele>538.96</ele>
        <time>2013-01-13T15:18:13Z</time>
      </trkpt>
      <trkpt lat="45.77982" lon="4.65325">
        <ele>537.03</ele>
        <time>2013-01-13T15:18:23Z</time>
      </trkpt>
      <trkpt lat="45.7798" lon="4.65328">
        <ele>536.07</ele>
        <time>2013-01-13T15:18:32Z</time>
      </trkpt>
      <trkpt lat="45.77957" lon="4.65339">
        <ele>532.71</ele>
        <time>2013-01-13T15:18:42Z</time>
      </trkpt>
      <trkpt lat="45.7794" lon="4.65356">
        <ele>528.86</ele>
        <time>2013-01-13T15:18:51Z</time>
      </trkpt>
      <trkpt lat="45.77936" lon="4.65378">
        <ele>526.94</ele>
        <time>2013-01-13T15:18:59Z</time>
      </trkpt>
      <trkpt lat="45.77933" lon="4.654">
        <ele>522.61</ele>
        <time>2013-01-13T15:19:09Z</time>
      </trkpt>
      <trkpt lat="45.77932" lon="4.65441">
        <ele>518.77</ele>
        <time>2013-01-13T15:19:21Z</time>
      </trkpt>
      <trkpt lat="45.77934" lon="4.65475">
        <ele>511.56</ele>
        <time>2013-01-13T15:19:31Z</time>
      </trkpt>
      <trkpt lat="45.77943" lon="4.65498">
        <ele>502.43</ele>
        <time>2013-01-13T15:19:41Z</time>
      </trkpt>
      <trkpt lat="45.77941" lon="4.65532">
        <ele>490.41</ele>
        <time>2013-01-13T15:19:52Z</time>
      </trkpt>
      <trkpt lat="45.77925" lon="4.65579">
        <ele>477.43</ele>
        <time>2013-01-13T15:20:06Z</time>
      </trkpt>
      <trkpt lat="45.7791" lon="4.65617">
        <ele>471.18</ele>
        <time>2013-01-13T15:20:17Z</time>
      </trkpt>
      <trkpt lat="45.77898" lon="4.6564">
        <ele>469.26</ele>
        <time>2013-01-13T15:20:26Z</time>
      </trkpt>
      <trkpt lat="45.77892" lon="4.65653">
        <ele>468.78</ele>
        <time>2013-01-13T15:20:37Z</time>
      </trkpt>
      <trkpt lat="45.77878" lon="4.65673">
        <ele>473.59</ele>
        <time>2013-01-13T15:20:46Z</time>
      </trkpt>
      <trkpt lat="45.77861" lon="4.65702">
        <ele>478.39</ele>
        <time>2013-01-13T15:20:57Z</time>
      </trkpt>
      <trkpt lat="45.77862" lon="4.65743">
        <ele>486.08</ele>
        <time>2013-01-13T15:21:08Z</time>
      </trkpt>
      <trkpt lat="45.77867" lon="4.6576">
        <ele>492.33</ele>
        <time>2013-01-13T15:21:15Z</time>
      </trkpt>
      <trkpt lat="45.77878" lon="4.65775">
        <ele>496.66</ele>
        <time>2013-01-13T15:21:26Z</time>
      </trkpt>
      <trkpt lat="45.77883" lon="4.65785">
        <ele>496.66</ele>
        <time>2013-01-13T15:21:31Z</time>
      </trkpt>
      <trkpt lat="45.77886" lon="4.65794">
        <ele>495.7</ele>
        <time>2013-01-13T15:21:35Z</time>
      </trkpt>
      <trkpt lat="45.77894" lon="4.65821">
        <ele>492.33</ele>
        <time>2013-01-13T15:21:45Z</time>
      </trkpt>
      <trkpt lat="45.77897" lon="4.65842">
        <ele>487.53</ele>
        <time>2013-01-13T15:21:54Z</time>
      </trkpt>
      <trkpt lat="45.7789" lon="4.65886">
        <ele>479.35</ele>
        <time>2013-01-13T15:22:07Z</time>
      </trkpt>
      <trkpt lat="45.77885" lon="4.659">
        <ele>476.95</ele>
        <time>2013-01-13T15:22:11Z</time>
      </trkpt>
      <trkpt lat="45.77879" lon="4.65911">
        <ele>473.11</ele>
        <time>2013-01-13T15:22:16Z</time>
      </trkpt>
      <trkpt lat="45.77878" lon="4.65929">
        <ele>471.18</ele>
        <time>2013-01-13T15:22:20Z</time>
      </trkpt>
      <trkpt lat="45.7789" lon="4.6596">
        <ele>466.38</ele>
        <time>2013-01-13T15:22:31Z</time>
      </trkpt>
      <trkpt lat="45.77891" lon="4.65962">
        <ele>465.9</ele>
        <time>2013-01-13T15:22:32Z</time>
      </trkpt>
      <trkpt lat="45.77906" lon="4.65981">
        <ele>462.05</ele>
        <time>2013-01-13T15:22:40Z</time>
      </trkpt>
      <trkpt lat="45.7792" lon="4.66011">
        <ele>458.69</ele>
        <time>2013-01-13T15:22:50Z</time>
      </trkpt>
      <trkpt lat="45.77928" lon="4.66036">
        <ele>456.76</ele>
        <time>2013-01-13T15:22:59Z</time>
      </trkpt>
      <trkpt lat="45.77935" lon="4.66057">
        <ele>449.55</ele>
        <time>2013-01-13T15:23:10Z</time>
      </trkpt>
      <trkpt lat="45.77947" lon="4.66083">
        <ele>445.23</ele>
        <time>2013-01-13T15:23:19Z</time>
      </trkpt>
      <trkpt lat="45.77951" lon="4.66089">
        <ele>445.23</ele>
        <time>2013-01-13T15:23:21Z</time>
      </trkpt>
      <trkpt lat="45.77955" lon="4.66117">
        <ele>441.86</ele>
        <time>2013-01-13T15:23:31Z</time>
      </trkpt>
      <trkpt lat="45.77956" lon="4.66124">
        <ele>441.38</ele>
        <time>2013-01-13T15:23:33Z</time>
      </trkpt>
      <trkpt lat="45.7796" lon="4.66154">
        <ele>435.61</ele>
        <time>2013-01-13T15:23:42Z</time>
      </trkpt>
      <trkpt lat="45.77956" lon="4.66181">
        <ele>431.77</ele>
        <time>2013-01-13T15:23:50Z</time>
      </trkpt>
      <trkpt lat="45.77944" lon="4.66227">
        <ele>429.37</ele>
        <time>2013-01-13T15:24:03Z</time>
      </trkpt>
      <trkpt lat="45.77938" lon="4.66263">
        <ele>424.56</ele>
        <time>2013-01-13T15:24:14Z</time>
      </trkpt>
      <trkpt lat="45.77941" lon="4.66299">
        <ele>422.64</ele>
        <time>2013-01-13T15:24:24Z</time>
      </trkpt>
      <trkpt lat="45.77944" lon="4.6634">
        <ele>421.68</ele>
        <time>2013-01-13T15:24:34Z</time>
      </trkpt>
      <trkpt lat="45.77957" lon="4.66377">
        <ele>418.79</ele>
        <time>2013-01-13T15:24:46Z</time>
      </trkpt>
      <trkpt lat="45.77956" lon="4.66413">
        <ele>416.87</ele>
        <time>2013-01-13T15:24:56Z</time>
      </trkpt>
      <trkpt lat="45.77961" lon="4.66456">
        <ele>413.98</ele>
        <time>2013-01-13T15:25:08Z</time>
      </trkpt>
      <trkpt lat="45.7796" lon="4.66483">
        <ele>414.95</ele>
        <time>2013-01-13T15:25:16Z</time>
      </trkpt>
      <trkpt lat="45.77948" lon="4.66527">
        <ele>417.35</ele>
        <time>2013-01-13T15:25:28Z</time>
      </trkpt>
      <trkpt lat="45.77931" lon="4.66557">
        <ele>422.64</ele>
        <time>2013-01-13T15:25:36Z</time>
      </trkpt>
      <trkpt lat="45.77921" lon="4.66572">
        <ele>423.12</ele>
        <time>2013-01-13T15:25:42Z</time>
      </trkpt>
      <trkpt lat="45.77912" lon="4.66593">
        <ele>430.33</ele>
        <time>2013-01-13T15:25:52Z</time>
      </trkpt>
      <trkpt lat="45.7791" lon="4.66595">
        <ele>431.77</ele>
        <time>2013-01-13T15:25:53Z</time>
      </trkpt>
      <trkpt lat="45.77893" lon="4.66608">
        <ele>435.61</ele>
        <time>2013-01-13T15:26:02Z</time>
      </trkpt>
      <trkpt lat="45.7789" lon="4.66609">
        <ele>435.61</ele>
        <time>2013-01-13T15:26:03Z</time>
      </trkpt>
      <trkpt lat="45.77868" lon="4.66613">
        <ele>435.13</ele>
        <time>2013-01-13T15:26:13Z</time>
      </trkpt>
      <trkpt lat="45.77848" lon="4.6661">
        <ele>434.17</ele>
        <time>2013-01-13T15:26:22Z</time>
      </trkpt>
      <trkpt lat="45.77831" lon="4.66611">
        <ele>431.77</ele>
        <time>2013-01-13T15:26:30Z</time>
      </trkpt>
      <trkpt lat="45.77808" lon="4.66611">
        <ele>432.73</ele>
        <time>2013-01-13T15:26:39Z</time>
      </trkpt>
      <trkpt lat="45.77791" lon="4.66597">
        <ele>431.77</ele>
        <time>2013-01-13T15:26:47Z</time>
      </trkpt>
      <trkpt lat="45.77785" lon="4.66594">
        <ele>431.29</ele>
        <time>2013-01-13T15:26:50Z</time>
      </trkpt>
      <trkpt lat="45.77777" lon="4.66611">
        <ele>428.89</ele>
        <time>2013-01-13T15:26:57Z</time>
      </trkpt>
      <trkpt lat="45.77777" lon="4.66622">
        <ele>426.96</ele>
        <time>2013-01-13T15:27:00Z</time>
      </trkpt>
      <trkpt lat="45.77788" lon="4.6666">
        <ele>422.64</ele>
        <time>2013-01-13T15:27:12Z</time>
      </trkpt>
      <trkpt lat="45.77789" lon="4.66673">
        <ele>421.68</ele>
        <time>2013-01-13T15:27:16Z</time>
      </trkpt>
      <trkpt lat="45.77783" lon="4.66682">
        <ele>420.71</ele>
        <time>2013-01-13T15:27:23Z</time>
      </trkpt>
      <trkpt lat="45.77758" lon="4.66703">
        <ele>423.12</ele>
        <time>2013-01-13T15:27:32Z</time>
      </trkpt>
      <trkpt lat="45.77752" lon="4.66708">
        <ele>426</ele>
        <time>2013-01-13T15:27:35Z</time>
      </trkpt>
      <trkpt lat="45.77746" lon="4.66707">
        <ele>428.4</ele>
        <time>2013-01-13T15:27:39Z</time>
      </trkpt>
      <trkpt lat="45.77741" lon="4.66701">
        <ele>431.29</ele>
        <time>2013-01-13T15:27:45Z</time>
      </trkpt>
    </trkseg>
  </trk>
</gpx>